sensor_id;sensor_type;location;lat;lon;timestamp;temperature;humidity
3986;DHT22;2007;48.750;9.278;2022-08-04T00:00:05;27.20;54.90
3986;DHT22;2007;48.750;9.278;2022-08-04T00:02:57;27.20;54.90
3986;DHT22;2007;48.750;9.278;2022-08-04T00:05:35;27.30;55.00
3986;DHT22;2007;48.750;9.278;2022-08-04T00:08:09;27.20;54.90
3986;DHT22;2007;48.750;9.278;2022-08-04T00:10:39;27.20;54.90
3986;DHT22;2007;48.750;9.278;2022-08-04T00:13:11;27.30;55.00
3986;DHT22;2007;48.750;9.278;2022-08-04T00:15:40;27.30;55.00
3986;DHT22;2007;48.750;9.278;2022-08-04T00:18:14;27.30;55.00
3986;DHT22;2007;48.750;9.278;2022-08-04T00:20:43;27.20;54.90
3986;DHT22;2007;48.750;9.278;2022-08-04T00:23:12;27.20;54.90
3986;DHT22;2007;48.750;9.278;2022-08-04T00:25:41;27.20;54.90
3986;DHT22;2007;48.750;9.278;2022-08-04T00:28:10;27.20;54.90
3986;DHT22;2007;48.750;9.278;2022-08-04T00:30:40;27.30;54.90
3986;DHT22;2007;48.750;9.278;2022-08-04T00:33:09;27.30;55.00
3986;DHT22;2007;48.750;9.278;2022-08-04T00:35:39;27.30;54.90
3986;DHT22;2007;48.750;9.278;2022-08-04T00:38:09;27.30;55.00
3986;DHT22;2007;48.750;9.278;2022-08-04T00:40:47;27.30;55.00
3986;DHT22;2007;48.750;9.278;2022-08-04T00:43:22;27.30;55.00
3986;DHT22;2007;48.750;9.278;2022-08-04T00:52:09;27.30;55.00
3986;DHT22;2007;48.750;9.278;2022-08-04T00:55:10;27.30;55.00
3986;DHT22;2007;48.750;9.278;2022-08-04T00:57:53;27.20;54.90
3986;DHT22;2007;48.750;9.278;2022-08-04T01:00:23;27.20;54.90
3986;DHT22;2007;48.750;9.278;2022-08-04T01:03:00;27.30;55.00
3986;DHT22;2007;48.750;9.278;2022-08-04T01:05:44;27.30;55.00
3986;DHT22;2007;48.750;9.278;2022-08-04T01:08:41;27.30;55.00
3986;DHT22;2007;48.750;9.278;2022-08-04T01:11:23;27.20;54.90
3986;DHT22;2007;48.750;9.278;2022-08-04T01:14:09;27.30;55.00
3986;DHT22;2007;48.750;9.278;2022-08-04T01:16:47;27.20;54.80
3986;DHT22;2007;48.750;9.278;2022-08-04T01:23:02;27.30;54.90
3986;DHT22;2007;48.750;9.278;2022-08-04T01:29:06;27.30;55.00
3986;DHT22;2007;48.750;9.278;2022-08-04T01:31:56;27.30;54.90
3986;DHT22;2007;48.750;9.278;2022-08-04T01:34:28;27.30;54.90
3986;DHT22;2007;48.750;9.278;2022-08-04T01:37:01;27.30;54.90
3986;DHT22;2007;48.750;9.278;2022-08-04T01:39:34;27.30;54.90
3986;DHT22;2007;48.750;9.278;2022-08-04T01:42:09;27.30;54.90
3986;DHT22;2007;48.750;9.278;2022-08-04T01:44:59;27.30;55.60
3986;DHT22;2007;48.750;9.278;2022-08-04T01:47:29;27.30;54.90
3986;DHT22;2007;48.750;9.278;2022-08-04T01:50:05;27.30;54.90
3986;DHT22;2007;48.750;9.278;2022-08-04T01:52:34;27.30;54.90
3986;DHT22;2007;48.750;9.278;2022-08-04T01:55:04;27.30;54.90
3986;DHT22;2007;48.750;9.278;2022-08-04T01:57:36;27.30;54.90
3986;DHT22;2007;48.750;9.278;2022-08-04T02:00:11;27.30;54.90
3986;DHT22;2007;48.750;9.278;2022-08-04T02:02:39;27.30;54.90
3986;DHT22;2007;48.750;9.278;2022-08-04T02:05:09;27.30;54.90
3986;DHT22;2007;48.750;9.278;2022-08-04T02:07:46;27.30;54.90
3986;DHT22;2007;48.750;9.278;2022-08-04T02:10:22;27.30;54.90
3986;DHT22;2007;48.750;9.278;2022-08-04T02:12:55;27.30;55.00
3986;DHT22;2007;48.750;9.278;2022-08-04T02:15:30;27.30;54.90
3986;DHT22;2007;48.750;9.278;2022-08-04T02:18:10;27.30;54.90
3986;DHT22;2007;48.750;9.278;2022-08-04T02:20:45;27.30;54.90
3986;DHT22;2007;48.750;9.278;2022-08-04T02:23:15;27.30;54.90
3986;DHT22;2007;48.750;9.278;2022-08-04T02:25:48;27.30;54.90
3986;DHT22;2007;48.750;9.278;2022-08-04T02:28:21;27.30;54.90
3986;DHT22;2007;48.750;9.278;2022-08-04T02:31:12;27.30;54.90
3986;DHT22;2007;48.750;9.278;2022-08-04T02:33:43;27.30;54.90
3986;DHT22;2007;48.750;9.278;2022-08-04T02:36:18;27.30;54.90
3986;DHT22;2007;48.750;9.278;2022-08-04T02:38:54;27.30;54.90
3986;DHT22;2007;48.750;9.278;2022-08-04T02:41:24;27.30;54.90
3986;DHT22;2007;48.750;9.278;2022-08-04T02:43:56;27.30;54.80
3986;DHT22;2007;48.750;9.278;2022-08-04T02:46:26;27.30;54.90
3986;DHT22;2007;48.750;9.278;2022-08-04T02:48:55;27.30;54.80
3986;DHT22;2007;48.750;9.278;2022-08-04T02:51:25;27.30;54.80
3986;DHT22;2007;48.750;9.278;2022-08-04T02:53:56;27.30;54.90
3986;DHT22;2007;48.750;9.278;2022-08-04T02:56:27;27.30;54.80
3986;DHT22;2007;48.750;9.278;2022-08-04T02:58:58;27.30;54.90
3986;DHT22;2007;48.750;9.278;2022-08-04T03:01:28;27.30;54.80
3986;DHT22;2007;48.750;9.278;2022-08-04T03:04:10;27.30;54.80
3986;DHT22;2007;48.750;9.278;2022-08-04T03:07:22;27.30;54.80
3986;DHT22;2007;48.750;9.278;2022-08-04T03:13:23;27.30;54.90
3986;DHT22;2007;48.750;9.278;2022-08-04T03:16:13;27.30;54.80
3986;DHT22;2007;48.750;9.278;2022-08-04T03:22:26;27.30;54.80
3986;DHT22;2007;48.750;9.278;2022-08-04T03:25:23;27.30;54.90
3986;DHT22;2007;48.750;9.278;2022-08-04T03:28:27;27.30;54.80
3986;DHT22;2007;48.750;9.278;2022-08-04T03:31:10;27.30;54.80
3986;DHT22;2007;48.750;9.278;2022-08-04T03:33:59;27.30;54.80
3986;DHT22;2007;48.750;9.278;2022-08-04T03:43:10;27.30;54.80
3986;DHT22;2007;48.750;9.278;2022-08-04T03:46:40;27.30;54.80
3986;DHT22;2007;48.750;9.278;2022-08-04T03:49:49;27.30;54.80
3986;DHT22;2007;48.750;9.278;2022-08-04T03:52:41;27.30;54.80
3986;DHT22;2007;48.750;9.278;2022-08-04T03:56:14;27.30;54.80
3986;DHT22;2007;48.750;9.278;2022-08-04T03:59:11;27.30;54.90
3986;DHT22;2007;48.750;9.278;2022-08-04T04:01:59;27.30;54.80
3986;DHT22;2007;48.750;9.278;2022-08-04T04:04:55;27.30;54.80
3986;DHT22;2007;48.750;9.278;2022-08-04T04:08:16;27.30;54.80
3986;DHT22;2007;48.750;9.278;2022-08-04T04:10:59;27.30;54.80
3986;DHT22;2007;48.750;9.278;2022-08-04T04:14:06;27.20;54.80
3986;DHT22;2007;48.750;9.278;2022-08-04T04:16:55;27.20;54.80
3986;DHT22;2007;48.750;9.278;2022-08-04T04:19:44;27.20;54.70
3986;DHT22;2007;48.750;9.278;2022-08-04T04:22:23;27.30;54.90
3986;DHT22;2007;48.750;9.278;2022-08-04T04:25:04;27.30;54.80
3986;DHT22;2007;48.750;9.278;2022-08-04T04:27:46;27.20;54.70
3986;DHT22;2007;48.750;9.278;2022-08-04T04:30:18;27.20;54.80
3986;DHT22;2007;48.750;9.278;2022-08-04T04:33:15;27.20;54.90
3986;DHT22;2007;48.750;9.278;2022-08-04T04:35:56;27.20;54.70
3986;DHT22;2007;48.750;9.278;2022-08-04T04:38:46;27.20;54.70
3986;DHT22;2007;48.750;9.278;2022-08-04T04:41:46;27.20;54.70
3986;DHT22;2007;48.750;9.278;2022-08-04T04:47:26;27.20;54.80
3986;DHT22;2007;48.750;9.278;2022-08-04T04:50:22;27.20;54.80
3986;DHT22;2007;48.750;9.278;2022-08-04T04:53:05;27.20;54.80
3986;DHT22;2007;48.750;9.278;2022-08-04T04:55:39;27.20;54.80
3986;DHT22;2007;48.750;9.278;2022-08-04T04:58:16;27.20;54.80
3986;DHT22;2007;48.750;9.278;2022-08-04T05:01:12;27.20;54.80
3986;DHT22;2007;48.750;9.278;2022-08-04T05:03:57;27.20;54.80
3986;DHT22;2007;48.750;9.278;2022-08-04T05:06:44;27.20;54.80
3986;DHT22;2007;48.750;9.278;2022-08-04T05:09:35;27.20;54.80
3986;DHT22;2007;48.750;9.278;2022-08-04T05:12:37;27.20;54.80
3986;DHT22;2007;48.750;9.278;2022-08-04T05:15:33;27.20;54.80
3986;DHT22;2007;48.750;9.278;2022-08-04T05:18:03;27.20;54.80
3986;DHT22;2007;48.750;9.278;2022-08-04T05:20:39;27.20;54.80
3986;DHT22;2007;48.750;9.278;2022-08-04T05:23:12;27.20;54.80
3986;DHT22;2007;48.750;9.278;2022-08-04T05:25:43;27.20;54.80
3986;DHT22;2007;48.750;9.278;2022-08-04T05:28:28;27.20;54.80
3986;DHT22;2007;48.750;9.278;2022-08-04T05:31:01;27.20;54.80
3986;DHT22;2007;48.750;9.278;2022-08-04T05:33:36;27.20;54.80
3986;DHT22;2007;48.750;9.278;2022-08-04T05:36:14;27.20;54.80
3986;DHT22;2007;48.750;9.278;2022-08-04T05:39:04;27.20;54.70
3986;DHT22;2007;48.750;9.278;2022-08-04T05:41:34;27.20;54.80
3986;DHT22;2007;48.750;9.278;2022-08-04T05:44:13;27.20;54.80
3986;DHT22;2007;48.750;9.278;2022-08-04T05:46:42;27.20;54.80
3986;DHT22;2007;48.750;9.278;2022-08-04T05:49:19;27.20;54.80
3986;DHT22;2007;48.750;9.278;2022-08-04T05:51:50;27.20;54.70
3986;DHT22;2007;48.750;9.278;2022-08-04T05:54:19;27.20;54.70
3986;DHT22;2007;48.750;9.278;2022-08-04T05:56:48;27.20;54.80
3986;DHT22;2007;48.750;9.278;2022-08-04T05:59:18;27.20;54.80
3986;DHT22;2007;48.750;9.278;2022-08-04T06:01:46;27.20;54.80
3986;DHT22;2007;48.750;9.278;2022-08-04T06:04:25;27.20;54.80
3986;DHT22;2007;48.750;9.278;2022-08-04T06:06:56;27.20;54.80
3986;DHT22;2007;48.750;9.278;2022-08-04T06:09:24;27.20;54.80
3986;DHT22;2007;48.750;9.278;2022-08-04T06:11:52;27.20;54.80
3986;DHT22;2007;48.750;9.278;2022-08-04T06:14:34;27.20;54.80
3986;DHT22;2007;48.750;9.278;2022-08-04T06:17:06;27.20;54.80
3986;DHT22;2007;48.750;9.278;2022-08-04T06:19:54;27.20;54.80
3986;DHT22;2007;48.750;9.278;2022-08-04T06:22:46;27.10;54.70
3986;DHT22;2007;48.750;9.278;2022-08-04T06:25:19;27.20;54.80
3986;DHT22;2007;48.750;9.278;2022-08-04T06:27:49;27.20;54.80
3986;DHT22;2007;48.750;9.278;2022-08-04T06:30:18;27.20;54.80
3986;DHT22;2007;48.750;9.278;2022-08-04T06:32:47;27.20;54.80
3986;DHT22;2007;48.750;9.278;2022-08-04T06:35:31;27.20;54.80
3986;DHT22;2007;48.750;9.278;2022-08-04T06:38:01;27.20;54.80
3986;DHT22;2007;48.750;9.278;2022-08-04T06:40:30;27.20;54.80
3986;DHT22;2007;48.750;9.278;2022-08-04T06:43:02;27.20;54.80
3986;DHT22;2007;48.750;9.278;2022-08-04T06:45:33;27.10;54.70
3986;DHT22;2007;48.750;9.278;2022-08-04T06:48:03;27.10;54.70
3986;DHT22;2007;48.750;9.278;2022-08-04T06:50:33;27.10;54.70
3986;DHT22;2007;48.750;9.278;2022-08-04T06:53:23;27.20;54.80
3986;DHT22;2007;48.750;9.278;2022-08-04T06:55:53;27.10;54.70
3986;DHT22;2007;48.750;9.278;2022-08-04T06:58:22;27.10;54.80
3986;DHT22;2007;48.750;9.278;2022-08-04T07:00:51;27.10;54.80
3986;DHT22;2007;48.750;9.278;2022-08-04T07:03:19;27.10;54.80
3986;DHT22;2007;48.750;9.278;2022-08-04T07:05:48;27.10;54.80
3986;DHT22;2007;48.750;9.278;2022-08-04T07:08:18;27.10;54.80
3986;DHT22;2007;48.750;9.278;2022-08-04T07:10:48;27.10;54.80
3986;DHT22;2007;48.750;9.278;2022-08-04T07:13:16;27.10;54.80
3986;DHT22;2007;48.750;9.278;2022-08-04T07:15:46;27.10;54.80
3986;DHT22;2007;48.750;9.278;2022-08-04T07:18:15;27.10;54.80
3986;DHT22;2007;48.750;9.278;2022-08-04T07:20:43;27.10;54.80
3986;DHT22;2007;48.750;9.278;2022-08-04T07:23:12;27.10;54.80
3986;DHT22;2007;48.750;9.278;2022-08-04T07:25:47;27.10;54.80
3986;DHT22;2007;48.750;9.278;2022-08-04T07:28:38;27.10;54.80
3986;DHT22;2007;48.750;9.278;2022-08-04T07:31:09;27.10;54.80
3986;DHT22;2007;48.750;9.278;2022-08-04T07:33:57;27.10;54.80
3986;DHT22;2007;48.750;9.278;2022-08-04T07:36:46;27.10;54.80
3986;DHT22;2007;48.750;9.278;2022-08-04T07:39:18;27.10;54.80
3986;DHT22;2007;48.750;9.278;2022-08-04T07:41:57;27.10;54.80
3986;DHT22;2007;48.750;9.278;2022-08-04T07:44:28;27.10;54.80
3986;DHT22;2007;48.750;9.278;2022-08-04T07:46:56;27.10;54.80
3986;DHT22;2007;48.750;9.278;2022-08-04T07:49:24;27.10;54.80
3986;DHT22;2007;48.750;9.278;2022-08-04T07:52:13;27.10;54.80
3986;DHT22;2007;48.750;9.278;2022-08-04T07:54:42;27.10;54.80
3986;DHT22;2007;48.750;9.278;2022-08-04T07:57:11;27.10;54.80
3986;DHT22;2007;48.750;9.278;2022-08-04T07:59:59;27.10;54.80
3986;DHT22;2007;48.750;9.278;2022-08-04T08:02:28;27.10;54.80
3986;DHT22;2007;48.750;9.278;2022-08-04T08:04:57;27.10;54.80
3986;DHT22;2007;48.750;9.278;2022-08-04T08:07:25;27.10;54.80
3986;DHT22;2007;48.750;9.278;2022-08-04T08:09:54;27.10;54.80
3986;DHT22;2007;48.750;9.278;2022-08-04T08:12:23;27.10;55.40
3986;DHT22;2007;48.750;9.278;2022-08-04T08:15:12;27.10;54.80
3986;DHT22;2007;48.750;9.278;2022-08-04T08:17:41;27.10;54.80
3986;DHT22;2007;48.750;9.278;2022-08-04T08:20:27;27.10;54.80
3986;DHT22;2007;48.750;9.278;2022-08-04T08:22:56;27.10;54.80
3986;DHT22;2007;48.750;9.278;2022-08-04T08:25:24;27.10;54.80
3986;DHT22;2007;48.750;9.278;2022-08-04T08:27:54;27.10;54.80
3986;DHT22;2007;48.750;9.278;2022-08-04T08:30:22;27.10;54.80
3986;DHT22;2007;48.750;9.278;2022-08-04T08:33:04;27.10;54.80
3986;DHT22;2007;48.750;9.278;2022-08-04T08:35:41;27.10;54.80
3986;DHT22;2007;48.750;9.278;2022-08-04T08:38:32;27.10;54.80
3986;DHT22;2007;48.750;9.278;2022-08-04T08:44:15;27.10;54.80
3986;DHT22;2007;48.750;9.278;2022-08-04T08:47:08;27.10;54.80
3986;DHT22;2007;48.750;9.278;2022-08-04T08:50:02;27.10;54.80
3986;DHT22;2007;48.750;9.278;2022-08-04T08:52:43;27.10;54.80
3986;DHT22;2007;48.750;9.278;2022-08-04T08:55:36;27.10;54.80
3986;DHT22;2007;48.750;9.278;2022-08-04T08:58:19;27.10;54.80
3986;DHT22;2007;48.750;9.278;2022-08-04T09:00:58;27.10;54.80
3986;DHT22;2007;48.750;9.278;2022-08-04T09:03:56;27.10;54.80
3986;DHT22;2007;48.750;9.278;2022-08-04T09:06:49;27.10;54.80
3986;DHT22;2007;48.750;9.278;2022-08-04T09:09:32;27.10;54.80
3986;DHT22;2007;48.750;9.278;2022-08-04T09:12:11;27.10;54.80
3986;DHT22;2007;48.750;9.278;2022-08-04T09:14:47;27.10;54.80
3986;DHT22;2007;48.750;9.278;2022-08-04T09:17:22;27.10;54.80
3986;DHT22;2007;48.750;9.278;2022-08-04T09:19:57;27.10;54.80
3986;DHT22;2007;48.750;9.278;2022-08-04T09:22:32;27.10;54.90
3986;DHT22;2007;48.750;9.278;2022-08-04T09:25:08;27.10;54.80
3986;DHT22;2007;48.750;9.278;2022-08-04T09:27:45;27.10;54.90
3986;DHT22;2007;48.750;9.278;2022-08-04T09:30:17;27.10;54.90
3986;DHT22;2007;48.750;9.278;2022-08-04T09:33:00;27.10;54.90
3986;DHT22;2007;48.750;9.278;2022-08-04T09:35:39;27.10;54.90
3986;DHT22;2007;48.750;9.278;2022-08-04T09:38:14;27.10;54.90
3986;DHT22;2007;48.750;9.278;2022-08-04T09:40:49;27.10;54.90
3986;DHT22;2007;48.750;9.278;2022-08-04T09:43:35;27.10;54.90
3986;DHT22;2007;48.750;9.278;2022-08-04T09:46:35;27.10;54.90
3986;DHT22;2007;48.750;9.278;2022-08-04T09:49:13;27.10;54.90
3986;DHT22;2007;48.750;9.278;2022-08-04T09:51:55;27.10;54.90
3986;DHT22;2007;48.750;9.278;2022-08-04T09:54:30;27.10;54.90
3986;DHT22;2007;48.750;9.278;2022-08-04T09:57:09;27.10;54.90
3986;DHT22;2007;48.750;9.278;2022-08-04T09:59:44;27.10;54.90
3986;DHT22;2007;48.750;9.278;2022-08-04T10:02:17;27.10;54.90
3986;DHT22;2007;48.750;9.278;2022-08-04T10:04:48;27.10;54.90
3986;DHT22;2007;48.750;9.278;2022-08-04T10:07:40;27.10;54.90
3986;DHT22;2007;48.750;9.278;2022-08-04T10:10:33;27.10;54.90
3986;DHT22;2007;48.750;9.278;2022-08-04T10:13:27;27.10;54.90
3986;DHT22;2007;48.750;9.278;2022-08-04T10:16:06;27.10;54.90
3986;DHT22;2007;48.750;9.278;2022-08-04T10:18:44;27.10;54.90
3986;DHT22;2007;48.750;9.278;2022-08-04T10:21:22;27.10;54.90
3986;DHT22;2007;48.750;9.278;2022-08-04T10:24:22;27.10;54.90
3986;DHT22;2007;48.750;9.278;2022-08-04T10:26:58;27.10;54.90
3986;DHT22;2007;48.750;9.278;2022-08-04T10:29:35;27.10;54.90
3986;DHT22;2007;48.750;9.278;2022-08-04T10:32:13;27.10;54.90
3986;DHT22;2007;48.750;9.278;2022-08-04T10:34:56;27.10;54.90
3986;DHT22;2007;48.750;9.278;2022-08-04T10:37:33;27.10;54.90
3986;DHT22;2007;48.750;9.278;2022-08-04T10:40:25;27.10;54.90
3986;DHT22;2007;48.750;9.278;2022-08-04T10:43:10;27.10;54.90
3986;DHT22;2007;48.750;9.278;2022-08-04T10:45:51;27.10;54.90
3986;DHT22;2007;48.750;9.278;2022-08-04T10:48:33;27.10;55.60
3986;DHT22;2007;48.750;9.278;2022-08-04T10:51:10;27.10;54.90
3986;DHT22;2007;48.750;9.278;2022-08-04T10:53:44;27.10;54.90
3986;DHT22;2007;48.750;9.278;2022-08-04T10:56:18;27.10;54.90
3986;DHT22;2007;48.750;9.278;2022-08-04T10:58:53;27.10;54.90
3986;DHT22;2007;48.750;9.278;2022-08-04T11:01:29;27.10;55.00
3986;DHT22;2007;48.750;9.278;2022-08-04T11:04:22;27.10;54.90
3986;DHT22;2007;48.750;9.278;2022-08-04T11:06:54;27.10;55.00
3986;DHT22;2007;48.750;9.278;2022-08-04T11:09:24;27.10;55.00
3986;DHT22;2007;48.750;9.278;2022-08-04T11:11:55;27.10;55.00
3986;DHT22;2007;48.750;9.278;2022-08-04T11:14:32;27.10;55.00
3986;DHT22;2007;48.750;9.278;2022-08-04T11:17:05;27.10;55.00
3986;DHT22;2007;48.750;9.278;2022-08-04T11:19:38;27.10;55.00
3986;DHT22;2007;48.750;9.278;2022-08-04T11:22:20;27.10;55.00
3986;DHT22;2007;48.750;9.278;2022-08-04T11:24:56;27.10;55.00
3986;DHT22;2007;48.750;9.278;2022-08-04T11:27:29;27.10;55.00
3986;DHT22;2007;48.750;9.278;2022-08-04T11:30:04;27.10;55.00
3986;DHT22;2007;48.750;9.278;2022-08-04T11:32:36;27.10;55.00
3986;DHT22;2007;48.750;9.278;2022-08-04T11:35:08;27.10;55.00
3986;DHT22;2007;48.750;9.278;2022-08-04T11:37:44;27.10;55.00
3986;DHT22;2007;48.750;9.278;2022-08-04T11:40:19;27.10;55.00
3986;DHT22;2007;48.750;9.278;2022-08-04T11:42:54;27.10;55.00
3986;DHT22;2007;48.750;9.278;2022-08-04T11:45:30;27.10;55.00
3986;DHT22;2007;48.750;9.278;2022-08-04T11:48:03;27.10;55.00
3986;DHT22;2007;48.750;9.278;2022-08-04T11:50:37;27.10;55.00
3986;DHT22;2007;48.750;9.278;2022-08-04T11:53:08;27.10;55.00
3986;DHT22;2007;48.750;9.278;2022-08-04T11:55:41;27.10;55.00
3986;DHT22;2007;48.750;9.278;2022-08-04T11:58:29;27.10;55.00
3986;DHT22;2007;48.750;9.278;2022-08-04T12:01:05;27.10;55.00
3986;DHT22;2007;48.750;9.278;2022-08-04T12:03:45;27.10;55.10
3986;DHT22;2007;48.750;9.278;2022-08-04T12:06:35;27.10;55.00
3986;DHT22;2007;48.750;9.278;2022-08-04T12:09:10;27.10;55.00
3986;DHT22;2007;48.750;9.278;2022-08-04T12:11:55;27.10;55.00
3986;DHT22;2007;48.750;9.278;2022-08-04T12:14:40;27.10;55.00
3986;DHT22;2007;48.750;9.278;2022-08-04T12:17:11;27.10;55.00
3986;DHT22;2007;48.750;9.278;2022-08-04T12:19:47;27.10;54.90
3986;DHT22;2007;48.750;9.278;2022-08-04T12:22:34;27.10;54.90
3986;DHT22;2007;48.750;9.278;2022-08-04T12:25:08;27.10;54.90
3986;DHT22;2007;48.750;9.278;2022-08-04T12:27:44;27.10;54.90
3986;DHT22;2007;48.750;9.278;2022-08-04T12:30:15;27.10;54.90
3986;DHT22;2007;48.750;9.278;2022-08-04T12:33:09;27.10;54.90
3986;DHT22;2007;48.750;9.278;2022-08-04T12:35:47;27.10;54.90
3986;DHT22;2007;48.750;9.278;2022-08-04T12:38:43;27.10;54.80
3986;DHT22;2007;48.750;9.278;2022-08-04T12:41:15;27.20;54.90
3986;DHT22;2007;48.750;9.278;2022-08-04T12:43:49;27.10;54.90
3986;DHT22;2007;48.750;9.278;2022-08-04T12:46:21;27.20;54.90
3986;DHT22;2007;48.750;9.278;2022-08-04T12:48:49;27.10;54.90
3986;DHT22;2007;48.750;9.278;2022-08-04T12:51:18;27.20;54.90
3986;DHT22;2007;48.750;9.278;2022-08-04T12:54:09;27.10;54.90
3986;DHT22;2007;48.750;9.278;2022-08-04T12:56:38;27.20;54.90
3986;DHT22;2007;48.750;9.278;2022-08-04T12:59:10;27.20;54.90
3986;DHT22;2007;48.750;9.278;2022-08-04T13:01:46;27.20;55.00
3986;DHT22;2007;48.750;9.278;2022-08-04T13:04:36;27.20;55.00
3986;DHT22;2007;48.750;9.278;2022-08-04T13:07:12;27.20;55.00
3986;DHT22;2007;48.750;9.278;2022-08-04T13:09:41;27.20;55.00
3986;DHT22;2007;48.750;9.278;2022-08-04T13:12:12;27.20;55.00
3986;DHT22;2007;48.750;9.278;2022-08-04T13:14:43;27.20;55.60
3986;DHT22;2007;48.750;9.278;2022-08-04T13:17:14;27.10;54.90
3986;DHT22;2007;48.750;9.278;2022-08-04T13:19:46;27.10;55.00
3986;DHT22;2007;48.750;9.278;2022-08-04T13:22:23;27.20;55.00
3986;DHT22;2007;48.750;9.278;2022-08-04T13:24:52;27.20;55.00
3986;DHT22;2007;48.750;9.278;2022-08-04T13:27:41;27.20;55.00
3986;DHT22;2007;48.750;9.278;2022-08-04T13:30:18;27.20;55.00
3986;DHT22;2007;48.750;9.278;2022-08-04T13:32:52;27.20;55.00
3986;DHT22;2007;48.750;9.278;2022-08-04T13:35:23;27.20;55.10
3986;DHT22;2007;48.750;9.278;2022-08-04T13:38:13;27.20;55.10
3986;DHT22;2007;48.750;9.278;2022-08-04T13:40:42;27.20;55.10
3986;DHT22;2007;48.750;9.278;2022-08-04T13:43:22;27.20;55.10
3986;DHT22;2007;48.750;9.278;2022-08-04T13:46:17;27.20;55.10
3986;DHT22;2007;48.750;9.278;2022-08-04T13:48:54;27.20;55.70
3986;DHT22;2007;48.750;9.278;2022-08-04T13:51:47;27.20;55.00
3986;DHT22;2007;48.750;9.278;2022-08-04T13:54:25;27.20;55.00
3986;DHT22;2007;48.750;9.278;2022-08-04T13:56:58;27.20;55.00
3986;DHT22;2007;48.750;9.278;2022-08-04T13:59:32;27.20;55.00
3986;DHT22;2007;48.750;9.278;2022-08-04T14:02:07;27.30;55.10
3986;DHT22;2007;48.750;9.278;2022-08-04T14:04:39;27.30;55.10
3986;DHT22;2007;48.750;9.278;2022-08-04T14:07:12;27.30;55.10
3986;DHT22;2007;48.750;9.278;2022-08-04T14:09:52;27.30;55.10
3986;DHT22;2007;48.750;9.278;2022-08-04T14:12:30;27.30;55.10
3986;DHT22;2007;48.750;9.278;2022-08-04T14:15:31;27.30;55.10
3986;DHT22;2007;48.750;9.278;2022-08-04T14:18:23;27.30;55.10
3986;DHT22;2007;48.750;9.278;2022-08-04T14:21:01;27.30;55.10
3986;DHT22;2007;48.750;9.278;2022-08-04T14:23:42;27.30;55.10
3986;DHT22;2007;48.750;9.278;2022-08-04T14:26:16;27.30;55.20
3986;DHT22;2007;48.750;9.278;2022-08-04T14:28:44;27.30;55.20
3986;DHT22;2007;48.750;9.278;2022-08-04T14:31:32;27.30;55.20
3986;DHT22;2007;48.750;9.278;2022-08-04T14:34:01;27.30;55.20
3986;DHT22;2007;48.750;9.278;2022-08-04T14:36:44;27.30;55.20
3986;DHT22;2007;48.750;9.278;2022-08-04T14:39:36;27.30;55.20
3986;DHT22;2007;48.750;9.278;2022-08-04T14:42:05;27.30;55.10
3986;DHT22;2007;48.750;9.278;2022-08-04T14:44:51;27.30;55.10
3986;DHT22;2007;48.750;9.278;2022-08-04T14:47:38;27.30;55.10
3986;DHT22;2007;48.750;9.278;2022-08-04T14:50:09;27.30;55.20
3986;DHT22;2007;48.750;9.278;2022-08-04T14:52:38;27.30;55.20
3986;DHT22;2007;48.750;9.278;2022-08-04T14:55:20;27.30;55.20
3986;DHT22;2007;48.750;9.278;2022-08-04T14:57:48;27.30;55.20
3986;DHT22;2007;48.750;9.278;2022-08-04T15:00:36;27.30;55.20
3986;DHT22;2007;48.750;9.278;2022-08-04T15:03:07;27.30;55.20
3986;DHT22;2007;48.750;9.278;2022-08-04T15:05:38;27.40;55.80
3986;DHT22;2007;48.750;9.278;2022-08-04T15:08:27;27.30;55.20
3986;DHT22;2007;48.750;9.278;2022-08-04T15:10:57;27.40;55.20
3986;DHT22;2007;48.750;9.278;2022-08-04T15:13:28;27.40;55.20
3986;DHT22;2007;48.750;9.278;2022-08-04T15:15:57;27.40;55.90
3986;DHT22;2007;48.750;9.278;2022-08-04T15:18:35;27.40;55.20
3986;DHT22;2007;48.750;9.278;2022-08-04T15:21:07;27.40;55.20
3986;DHT22;2007;48.750;9.278;2022-08-04T15:23:35;27.40;55.20
3986;DHT22;2007;48.750;9.278;2022-08-04T15:26:09;27.40;55.20
3986;DHT22;2007;48.750;9.278;2022-08-04T15:28:41;27.40;55.20
3986;DHT22;2007;48.750;9.278;2022-08-04T15:31:12;27.40;55.20
3986;DHT22;2007;48.750;9.278;2022-08-04T15:34:01;27.40;55.20
3986;DHT22;2007;48.750;9.278;2022-08-04T15:36:35;27.40;55.20
3986;DHT22;2007;48.750;9.278;2022-08-04T15:39:10;27.40;55.20
3986;DHT22;2007;48.750;9.278;2022-08-04T15:41:46;27.40;55.20
3986;DHT22;2007;48.750;9.278;2022-08-04T15:47:31;27.40;55.20
3986;DHT22;2007;48.750;9.278;2022-08-04T15:50:05;27.40;55.20
3986;DHT22;2007;48.750;9.278;2022-08-04T15:53:02;27.40;55.20
3986;DHT22;2007;48.750;9.278;2022-08-04T15:55:39;27.40;55.20
3986;DHT22;2007;48.750;9.278;2022-08-04T15:58:10;27.50;55.30
3986;DHT22;2007;48.750;9.278;2022-08-04T16:01:12;27.40;55.20
3986;DHT22;2007;48.750;9.278;2022-08-04T16:03:44;27.50;55.30
3986;DHT22;2007;48.750;9.278;2022-08-04T16:06:42;27.40;55.20
3986;DHT22;2007;48.750;9.278;2022-08-04T16:09:24;27.50;55.30
3986;DHT22;2007;48.750;9.278;2022-08-04T16:12:52;27.50;55.20
3986;DHT22;2007;48.750;9.278;2022-08-04T16:15:37;27.50;55.20
3986;DHT22;2007;48.750;9.278;2022-08-04T16:18:06;27.50;55.20
3986;DHT22;2007;48.750;9.278;2022-08-04T16:20:53;27.50;55.20
3986;DHT22;2007;48.750;9.278;2022-08-04T16:26:48;27.50;55.30
3986;DHT22;2007;48.750;9.278;2022-08-04T16:29:30;27.50;55.20
3986;DHT22;2007;48.750;9.278;2022-08-04T16:32:13;27.50;55.20
3986;DHT22;2007;48.750;9.278;2022-08-04T16:34:44;27.50;55.20
3986;DHT22;2007;48.750;9.278;2022-08-04T16:37:23;27.50;55.20
3986;DHT22;2007;48.750;9.278;2022-08-04T16:40:28;27.50;55.30
3986;DHT22;2007;48.750;9.278;2022-08-04T16:43:06;27.50;55.20
3986;DHT22;2007;48.750;9.278;2022-08-04T16:45:45;27.50;55.20
3986;DHT22;2007;48.750;9.278;2022-08-04T16:48:15;27.50;55.20
3986;DHT22;2007;48.750;9.278;2022-08-04T16:50:55;27.50;55.20
3986;DHT22;2007;48.750;9.278;2022-08-04T16:53:36;27.60;55.30
3986;DHT22;2007;48.750;9.278;2022-08-04T16:56:28;27.60;55.30
3986;DHT22;2007;48.750;9.278;2022-08-04T16:59:06;27.60;55.20
3986;DHT22;2007;48.750;9.278;2022-08-04T17:01:36;27.60;55.20
3986;DHT22;2007;48.750;9.278;2022-08-04T17:04:04;27.60;55.20
3986;DHT22;2007;48.750;9.278;2022-08-04T17:06:35;27.60;55.30
3986;DHT22;2007;48.750;9.278;2022-08-04T17:09:04;27.60;55.20
3986;DHT22;2007;48.750;9.278;2022-08-04T17:11:32;27.60;55.20
3986;DHT22;2007;48.750;9.278;2022-08-04T17:14:01;27.60;55.20
3986;DHT22;2007;48.750;9.278;2022-08-04T17:16:35;27.60;55.20
3986;DHT22;2007;48.750;9.278;2022-08-04T17:19:04;27.60;55.20
3986;DHT22;2007;48.750;9.278;2022-08-04T17:21:46;27.60;55.20
3986;DHT22;2007;48.750;9.278;2022-08-04T17:24:15;27.60;55.20
3986;DHT22;2007;48.750;9.278;2022-08-04T17:26:45;27.60;55.20
3986;DHT22;2007;48.750;9.278;2022-08-04T17:29:21;27.60;55.20
3986;DHT22;2007;48.750;9.278;2022-08-04T17:32:15;27.70;55.30
3986;DHT22;2007;48.750;9.278;2022-08-04T17:34:46;27.70;55.30
3986;DHT22;2007;48.750;9.278;2022-08-04T17:37:15;27.70;55.30
3986;DHT22;2007;48.750;9.278;2022-08-04T17:40:08;27.70;55.90
3986;DHT22;2007;48.750;9.278;2022-08-04T17:42:37;27.70;55.30
3986;DHT22;2007;48.750;9.278;2022-08-04T17:45:08;27.70;55.20
3986;DHT22;2007;48.750;9.278;2022-08-04T17:47:58;27.70;55.20
3986;DHT22;2007;48.750;9.278;2022-08-04T17:50:30;27.70;55.20
3986;DHT22;2007;48.750;9.278;2022-08-04T17:53:31;27.70;55.30